Time;durP1;ratioP1;P1;durP2;ratioP2;P2;SDS_P1;SDS_P2;PMS_P1;PMS_P2;Temp;Humidity;BMP_temperature;BMP_pressure;BME280_temperature;BME280_humidity;BME280_pressure;Samples;Min_cycle;Max_cycle;Signal;HPM_P1;HPM_P2
2021/12/30 00:04:55;;;;;;;1.60;0.20;;;12.70;99.90;;;;;;20626748;28;20037;-77
2021/12/30 00:14:55;;;;;;;2.00;0.60;;;12.70;99.90;;;;;;20644345;28;20060;-76
2021/12/30 00:24:56;;;;;;;0.50;0.30;;;12.70;99.90;;;;;;20625513;28;20066;-76
2021/12/30 00:34:57;;;;;;;1.43;0.20;;;12.70;99.90;;;;;;20642976;28;20042;-77
2021/12/30 00:44:58;;;;;;;0.30;0.20;;;12.60;99.90;;;;;;20643212;28;20030;-77
2021/12/30 00:54:59;;;;;;;0.13;0.13;;;12.60;99.90;;;;;;20642363;28;20035;-77
2021/12/30 01:05:00;;;;;;;0.20;0.20;;;12.70;99.90;;;;;;20642143;28;20068;-77
2021/12/30 01:15:07;;;;;;;1.53;0.40;;;12.70;99.90;;;;;;20614380;28;20034;-78
2021/12/30 01:25:11;;;;;;;0.40;0.22;;;12.60;99.90;;;;;;20659971;28;20149;-76
2021/12/30 01:35:15;;;;;;;1.13;0.32;;;12.50;99.90;;;;;;20660686;28;20110;-77
2021/12/30 01:45:16;;;;;;;2.58;0.50;;;12.40;99.90;;;;;;20657017;28;20397;-79
2021/12/30 01:55:18;;;;;;;0.87;0.40;;;12.30;99.90;;;;;;20674274;28;20033;-76
2021/12/30 02:05:20;;;;;;;5.18;1.25;;;12.20;99.90;;;;;;20656137;28;20038;-76
2021/12/30 02:15:20;;;;;;;6.90;1.00;;;12.10;99.90;;;;;;20673086;28;20034;-76
2021/12/30 02:25:21;;;;;;;0.90;0.70;;;12.00;99.90;;;;;;20672037;28;20037;-78
2021/12/30 02:35:22;;;;;;;3.90;1.00;;;11.90;99.90;;;;;;20670916;28;20034;-77
2021/12/30 02:45:23;;;;;;;1.87;0.60;;;11.90;99.90;;;;;;20653348;28;20054;-77
2021/12/30 02:55:24;;;;;;;0.53;0.40;;;11.90;99.90;;;;;;20669149;28;20034;-79
2021/12/30 03:05:25;;;;;;;5.73;2.13;;;11.80;99.90;;;;;;20669218;28;20496;-77
2021/12/30 03:15:28;;;;;;;5.37;1.60;;;11.90;99.90;;;;;;20668340;28;20120;-79
2021/12/30 03:25:30;;;;;;;3.70;0.40;;;11.80;99.90;;;;;;20667478;28;20060;-76
2021/12/30 03:35:31;;;;;;;4.00;0.20;;;11.70;99.90;;;;;;20666664;28;20049;-77
2021/12/30 03:45:32;;;;;;;0.20;0.10;;;11.80;99.90;;;;;;20666017;28;20033;-76
2021/12/30 03:55:33;;;;;;;2.73;0.10;;;11.90;99.90;;;;;;20647739;28;20034;-77
2021/12/30 04:05:34;;;;;;;0.17;0.10;;;12.00;99.90;;;;;;20663924;28;20026;-77
2021/12/30 04:15:35;;;;;;;2.90;0.10;;;12.10;99.90;;;;;;20663914;28;20037;-76
2021/12/30 04:25:35;;;;;;;0.10;0.10;;;12.10;99.90;;;;;;20663450;28;20046;-77
2021/12/30 04:35:36;;;;;;;0.10;0.10;;;12.00;99.90;;;;;;20662839;28;20093;-77
2021/12/30 04:45:37;;;;;;;1.17;0.20;;;12.00;99.90;;;;;;20660378;28;20027;-77
2021/12/30 04:55:38;;;;;;;1.33;0.57;;;12.00;99.90;;;;;;20661827;28;20038;-76
2021/12/30 05:05:43;;;;;;;7.40;3.60;;;11.90;99.90;;;;;;20661716;28;20038;-77
2021/12/30 05:15:47;;;;;;;1.73;0.90;;;11.70;99.90;;;;;;20668879;28;20030;-78
2021/12/30 05:25:47;;;;;;;1.25;0.50;;;11.60;99.90;;;;;;20676877;28;20030;-77
2021/12/30 05:35:48;;;;;;;4.10;1.53;;;11.60;99.90;;;;;;20675809;28;20038;-76
2021/12/30 05:45:49;;;;;;;2.47;1.00;;;11.60;99.90;;;;;;20675161;28;20042;-78
2021/12/30 05:55:50;;;;;;;2.07;0.50;;;11.60;99.90;;;;;;20641275;28;20034;-76
2021/12/30 06:05:51;;;;;;;3.73;1.63;;;11.60;99.90;;;;;;20673797;28;20035;-77
2021/12/30 06:15:52;;;;;;;2.30;1.70;;;11.50;99.90;;;;;;20655866;28;20060;-77
2021/12/30 06:25:53;;;;;;;3.47;1.00;;;11.40;99.90;;;;;;20671232;28;20038;-76
2021/12/30 06:35:53;;;;;;;453.50;16.87;;;11.40;99.90;;;;;;20671423;28;20105;-77
2021/12/30 06:45:54;;;;;;;249.33;9.50;;;11.20;99.90;;;;;;20670740;28;20085;-76
2021/12/30 06:55:57;;;;;;;73.47;7.37;;;11.20;99.90;;;;;;20669713;28;20038;-76
2021/12/30 07:05:58;;;;;;;376.92;14.18;;;11.20;99.90;;;;;;20651887;28;20393;-76
2021/12/30 07:15:59;;;;;;;323.17;22.40;;;11.30;99.90;;;;;;20668310;28;20169;-76
2021/12/30 07:26:00;;;;;;;451.95;96.22;;;11.20;99.90;;;;;;20650021;28;20031;-76
2021/12/30 07:36:01;;;;;;;323.93;13.73;;;11.30;99.90;;;;;;20666763;28;20040;-76
2021/12/30 07:46:02;;;;;;;282.33;10.30;;;11.30;99.90;;;;;;20665966;28;20469;-75
2021/12/30 07:56:04;;;;;;;279.77;12.45;;;11.30;99.90;;;;;;20665028;28;20069;-75
2021/12/30 08:06:05;;;;;;;341.17;12.70;;;11.40;99.90;;;;;;20647176;28;20035;-76
2021/12/30 08:16:05;;;;;;;401.03;19.60;;;11.40;99.90;;;;;;20646687;28;20034;-76
2021/12/30 08:26:07;;;;;;;350.27;17.40;;;11.40;99.90;;;;;;20663320;28;20031;-75
2021/12/30 08:36:07;;;;;;;345.97;19.60;;;11.50;99.90;;;;;;20645293;28;20030;-76
2021/12/30 08:46:08;;;;;;;543.00;30.47;;;11.50;99.90;;;;;;20661558;28;20065;-76
2021/12/30 08:56:11;;;;;;;146.53;17.30;;;11.60;99.90;;;;;;20644194;28;20121;-78
2021/12/30 09:06:13;;;;;;;21.05;9.50;;;11.60;99.90;;;;;;20661795;28;20058;-77
2021/12/30 09:16:14;;;;;;;14.50;6.03;;;11.60;99.90;;;;;;20661046;28;20045;-76
2021/12/30 09:26:15;;;;;;;16.40;6.53;;;11.70;99.90;;;;;;20630382;28;20110;-75
2021/12/30 09:36:16;;;;;;;16.20;6.13;;;11.80;99.90;;;;;;20635202;28;20405;-75
2021/12/30 09:46:18;;;;;;;20.83;7.83;;;11.90;99.90;;;;;;20630796;28;20042;-77
2021/12/30 09:56:20;;;;;;;14.43;8.43;;;12.10;99.90;;;;;;20585709;28;20034;-77
2021/12/30 10:06:21;;;;;;;9.30;4.28;;;12.30;99.90;;;;;;20622897;28;20833;-77
2021/12/30 10:16:22;;;;;;;15.30;4.57;;;12.50;99.90;;;;;;20632124;28;20093;-78
2021/12/30 10:26:24;;;;;;;7.22;4.07;;;12.60;99.90;;;;;;20613015;28;20536;-77
2021/12/30 10:36:28;;;;;;;4.20;2.80;;;12.80;99.90;;;;;;20601483;28;20090;-76
2021/12/30 10:46:30;;;;;;;5.60;2.20;;;12.80;99.90;;;;;;20589439;28;20047;-77
2021/12/30 10:56:36;;;;;;;;;;;13.00;99.90;;;;;;20585626;28;20106;-77
2021/12/30 11:06:37;;;;;;;1.88;1.15;;;13.20;99.90;;;;;;20632948;28;19914;-78
2021/12/30 11:17:01;;;;;;;2.37;1.40;;;13.30;99.90;;;;;;20649262;28;20675;-77
2021/12/30 11:27:03;;;;;;;1.05;0.80;;;13.30;99.90;;;;;;20649446;28;20445;-77
2021/12/30 11:37:06;;;;;;;1.55;0.52;;;13.40;99.90;;;;;;20630762;28;20034;-77
2021/12/30 11:47:28;;;;;;;4.00;0.70;;;13.50;99.90;;;;;;20648271;28;20065;-77
2021/12/30 11:57:34;;;;;;;0.90;0.60;;;13.50;99.90;;;;;;20646465;28;20042;-78
2021/12/30 12:08:01;;;;;;;3.03;0.40;;;13.70;99.90;;;;;;20612290;28;20041;-77
2021/12/30 12:18:12;;;;;;;0.63;0.50;;;13.70;99.90;;;;;;20645255;28;20026;-77
2021/12/30 12:28:19;;;;;;;1.67;0.60;;;13.70;99.90;;;;;;20581581;28;20077;-77
2021/12/30 12:38:35;;;;;;;4.55;0.70;;;13.60;99.90;;;;;;20564602;28;20092;-78
2021/12/30 12:48:39;;;;;;;1.40;0.75;;;13.60;99.90;;;;;;20555692;28;20030;-77
2021/12/30 12:58:44;;;;;;;3.15;0.80;;;13.50;99.90;;;;;;20618381;28;20046;-78
2021/12/30 13:08:50;;;;;;;5.88;1.02;;;13.50;99.90;;;;;;20625454;28;20046;-80
2021/12/30 13:19:19;;;;;;;2.97;1.42;;;13.50;99.90;;;;;;20563442;28;20023;-78
2021/12/30 13:29:39;;;;;;;1.30;0.95;;;13.50;99.90;;;;;;20561257;28;20034;-77
2021/12/30 13:39:41;;;;;;;4.95;1.38;;;13.50;99.90;;;;;;20616000;28;20636;-77
2021/12/30 13:49:44;;;;;;;10.65;4.50;;;13.50;99.90;;;;;;20595791;28;20039;-77
2021/12/30 13:59:44;;;;;;;5.13;2.50;;;13.50;99.90;;;;;;20574728;28;20126;-77
2021/12/30 14:09:57;;;;;;;7.63;3.97;;;13.50;99.90;;;;;;20617896;28;20474;-77
2021/12/30 14:19:58;;;;;;;2.33;1.52;;;13.50;99.90;;;;;;20653827;28;20034;-77
2021/12/30 14:30:13;;;;;;;2.42;1.30;;;13.50;99.90;;;;;;20653604;28;20067;-77
2021/12/30 14:40:19;;;;;;;4.13;2.78;;;13.50;99.90;;;;;;20650053;28;20467;-79
2021/12/30 14:50:24;;;;;;;4.03;1.98;;;13.60;99.90;;;;;;20657376;28;20512;-79
2021/12/30 15:00:31;;;;;;;4.28;1.42;;;13.60;99.90;;;;;;20657970;28;20046;-75
2021/12/30 15:10:33;;;;;;;3.10;1.35;;;13.60;99.90;;;;;;20631742;28;20034;-78
2021/12/30 15:20:34;;;;;;;4.75;1.30;;;13.50;99.90;;;;;;20649326;28;20046;-77
2021/12/30 15:30:36;;;;;;;7.95;4.00;;;13.40;99.90;;;;;;20622376;28;20134;-77
2021/12/30 15:40:37;;;;;;;6.13;3.13;;;13.40;99.90;;;;;;20593121;28;20058;-77
2021/12/30 15:50:37;;;;;;;2.43;1.30;;;13.40;99.90;;;;;;20602654;28;20081;-75
2021/12/30 16:00:39;;;;;;;4.33;2.67;;;13.40;99.90;;;;;;20604074;28;20030;-75
2021/12/30 16:10:40;;;;;;;2.75;0.90;;;13.20;99.90;;;;;;20621704;28;20045;-76
2021/12/30 16:20:47;;;;;;;1.60;0.83;;;13.10;99.90;;;;;;20644086;28;20169;-75
2021/12/30 16:30:48;;;;;;;8.48;3.10;;;13.10;99.90;;;;;;20627333;28;20084;-76
2021/12/30 16:40:49;;;;;;;6.70;3.43;;;13.10;99.90;;;;;;20643733;28;20038;-76
2021/12/30 16:50:50;;;;;;;1.23;1.00;;;13.20;99.90;;;;;;20640027;28;20033;-76
2021/12/30 17:00:51;;;;;;;2.27;1.10;;;12.70;99.90;;;;;;20642630;28;20034;-76
2021/12/30 17:10:52;;;;;;;2.57;1.80;;;12.60;99.90;;;;;;20648423;28;20034;-76
2021/12/30 17:20:53;;;;;;;4.43;2.50;;;12.40;99.90;;;;;;20639538;28;20064;-76
2021/12/30 17:30:55;;;;;;;10.50;6.67;;;12.30;99.90;;;;;;20655457;28;20042;-77
2021/12/30 17:40:58;;;;;;;;;;;12.30;99.90;;;;;;20657384;28;20026;-77
2021/12/30 17:51:02;;;;;;;5.82;4.63;;;12.20;99.90;;;;;;20638047;28;20016;-77
2021/12/30 18:01:03;;;;;;;10.82;4.30;;;12.10;99.90;;;;;;20655371;28;20082;-76
2021/12/30 18:11:05;;;;;;;6.13;3.33;;;11.90;99.90;;;;;;20628758;28;20151;-77
2021/12/30 18:21:10;;;;;;;5.20;2.75;;;11.80;99.90;;;;;;20578846;28;20054;-77
2021/12/30 18:31:11;;;;;;;3.95;1.77;;;11.60;99.90;;;;;;20570291;28;20038;-77
2021/12/30 18:41:13;;;;;;;5.63;2.17;;;11.60;99.90;;;;;;20606900;28;20026;-76
2021/12/30 18:51:16;;;;;;;4.05;2.28;;;11.50;99.90;;;;;;20616530;28;20050;-76
2021/12/30 19:01:17;;;;;;;7.05;2.75;;;11.50;99.90;;;;;;20648648;28;20104;-79
2021/12/30 19:11:18;;;;;;;8.00;2.53;;;11.60;99.90;;;;;;20643808;28;20038;-77
2021/12/30 19:21:19;;;;;;;9.17;2.80;;;11.60;99.90;;;;;;20630993;28;20064;-76
2021/12/30 19:31:20;;;;;;;5.63;2.43;;;11.50;99.90;;;;;;20648023;28;20034;-78
2021/12/30 19:41:20;;;;;;;6.87;2.87;;;11.60;99.90;;;;;;20611594;28;20035;-78
2021/12/30 19:51:21;;;;;;;11.77;3.93;;;11.50;99.90;;;;;;20569000;28;20400;-78
2021/12/30 20:01:22;;;;;;;4.37;2.70;;;11.50;99.90;;;;;;20548352;28;20147;-76
2021/12/30 20:11:24;;;;;;;15.97;6.43;;;11.60;99.90;;;;;;20621607;28;20040;-77
2021/12/30 20:21:25;;;;;;;16.90;9.93;;;11.70;99.90;;;;;;20620214;28;20077;-78
2021/12/30 20:31:26;;;;;;;10.70;4.50;;;11.60;99.90;;;;;;20643751;28;20552;-78
2021/12/30 20:41:26;;;;;;;8.20;4.07;;;11.50;99.90;;;;;;20611918;28;20573;-78
2021/12/30 20:51:27;;;;;;;5.97;3.53;;;11.40;99.90;;;;;;20580988;28;20033;-78
2021/12/30 21:01:30;;;;;;;9.73;6.20;;;11.20;99.90;;;;;;20641490;28;20076;-77
2021/12/30 21:11:31;;;;;;;7.45;3.90;;;11.20;99.90;;;;;;20623953;28;20043;-78
2021/12/30 21:21:32;;;;;;;4.70;3.20;;;11.10;99.90;;;;;;20607973;28;20042;-77
2021/12/30 21:31:33;;;;;;;9.10;4.30;;;11.10;99.90;;;;;;20641553;28;20044;-76
2021/12/30 21:41:35;;;;;;;4.77;3.20;;;11.00;99.90;;;;;;20623270;28;20042;-76
2021/12/30 21:51:36;;;;;;;7.90;4.05;;;10.90;99.90;;;;;;20640978;28;20042;-76
2021/12/30 22:01:37;;;;;;;8.37;4.03;;;10.80;99.90;;;;;;20652826;28;20038;-75
2021/12/30 22:11:37;;;;;;;9.23;4.10;;;10.80;99.90;;;;;;20636921;28;20042;-76
2021/12/30 22:21:38;;;;;;;12.83;5.23;;;10.80;99.90;;;;;;20577449;28;20034;-76
2021/12/30 22:31:39;;;;;;;8.53;4.30;;;10.80;99.90;;;;;;20594533;28;20026;-76
2021/12/30 22:41:41;;;;;;;7.93;4.07;;;10.70;99.90;;;;;;20634418;28;20034;-75
2021/12/30 22:51:42;;;;;;;6.07;4.07;;;10.70;99.90;;;;;;20633586;28;20540;-75
2021/12/30 23:01:43;;;;;;;6.90;3.80;;;10.70;99.90;;;;;;20633701;28;20061;-76
2021/12/30 23:11:44;;;;;;;11.23;5.28;;;10.80;99.90;;;;;;20648307;28;20034;-75
2021/12/30 23:21:45;;;;;;;7.00;3.93;;;10.60;99.90;;;;;;20632197;28;20037;-75
2021/12/30 23:31:46;;;;;;;8.43;3.20;;;10.50;99.90;;;;;;20622626;28;20370;-75
2021/12/30 23:41:47;;;;;;;11.93;4.20;;;10.40;99.90;;;;;;20632880;28;20030;-75
2021/12/30 23:51:48;;;;;;;6.87;4.33;;;10.40;99.90;;;;;;20642520;28;20066;-76
